Mangalore Airport
VOML : now visible

Airfield :











YOU CAN JOIN US ON...

 
LOGIN :

Register | Disclaimer

   EN    FR    IT 

 









Legend :    VFR   Marginal VFR   IFR   Intensive IFR   Very Intensive IFR
Visi :
Ceiling :
>= 8 km
>= 3000ft
5 to 8 km
1000 to 3000 ft
1500m to 5 km
500 to 1000 ft
800 to 1500m
200 to 500 ft
< 800m
< 200 ft
Symbols :   Thunderstorms  Fog  Heavy snow  Heavy precipitations  Wind > 20 kt






- Airport Elevation : 337 ft
- IATA code : IXE


VOML - Mangalore

CURRENT METAR :
  • 072230Z 11003KT 6000 FEW003 24/21 Q1010 TEMPO 5000 BR

EXPIRED METARs :
  • 072200Z 07003KT 6000 NSC 25/21 Q1010 NOSIG
  • 072130Z 05004KT 6000 NSC 25/21 Q1011 NOSIG
  • 072100Z 11005KT 6000 NSC 25/21 Q1011 NOSIG
  • 072030Z 00000KT 6000 NSC 25/21 Q1012 NOSIG
  • 072000Z 10003KT 6000 NSC 25/21 Q1012 NOSIG

TAF TAF VOML
Valid from the 07 at 21:00 until the 08 at 06:00 UTC


072000Z 0721/0806 11005KT 3000 BR SCT006
TEMPO 0800/0803 1000 BR SCT004
BECMG 0804/0805 6000 SCT012



MET'MAP, your aeronautical weather chart ! - Copyright ORBIFLY December 2007 - Disclaimer

ORBIFLY MET'MAP TEAM :

Programming & Development : Alexandra Zaïnal
Concept & original design : Baudouin d'Aumeries
Assistance for programming : Marc-Olivier Méhu
Technical & hardware support : Manuel Goepfert

Contact : metmap@orbifly.com




SOURCES & CREDITS :

   NOAA       Earth
Advisory